createdAt,value
2018-07-22T00:04:06.384Z,49.50
2018-07-22T00:08:57.279Z,49.40
2018-07-22T00:13:48.954Z,49.60
2018-07-22T00:18:39.844Z,49.50
2018-07-22T00:23:30.741Z,49.60
2018-07-22T00:28:22.444Z,49.60
2018-07-22T00:33:13.327Z,49.60
2018-07-22T00:38:04.227Z,49.60
2018-07-22T00:42:55.849Z,49.70
2018-07-22T00:47:47.577Z,49.80
2018-07-22T00:52:38.474Z,49.80
2018-07-22T00:57:29.378Z,49.80
2018-07-22T01:02:20.329Z,49.70
2018-07-22T01:07:11.221Z,49.90
2018-07-22T01:12:02.175Z,50.00
2018-07-22T01:16:58.538Z,49.80
2018-07-22T01:21:49.486Z,50.00
2018-07-22T01:26:40.378Z,50.10
2018-07-22T01:31:32.087Z,50.20
2018-07-22T01:36:23.089Z,50.10
2018-07-22T01:41:13.992Z,50.20
2018-07-22T01:46:04.892Z,50.30
2018-07-22T01:50:55.853Z,50.40
2018-07-22T01:55:46.753Z,50.40
2018-07-22T02:00:37.630Z,50.60
2018-07-22T02:05:29.259Z,50.70
2018-07-22T02:10:20.965Z,50.80
2018-07-22T02:15:11.858Z,50.70
2018-07-22T02:20:02.751Z,50.70
2018-07-22T02:24:53.703Z,50.80
2018-07-22T02:29:44.609Z,50.90
2018-07-22T02:34:35.515Z,51.00
2018-07-22T02:39:26.431Z,51.00
2018-07-22T02:44:17.333Z,51.10
2018-07-22T02:49:08.976Z,51.10
2018-07-22T02:53:59.871Z,51.10
2018-07-22T02:58:51.519Z,51.30
2018-07-22T03:03:43.147Z,51.40
2018-07-22T03:08:34.782Z,51.40
2018-07-22T03:13:26.420Z,51.50
2018-07-22T03:18:18.059Z,51.50
2018-07-22T03:23:09.705Z,51.50
2018-07-22T03:28:00.655Z,51.30
2018-07-22T03:32:51.530Z,51.40
2018-07-22T03:37:43.161Z,51.60
2018-07-22T03:42:34.780Z,51.50
2018-07-22T03:47:25.688Z,51.40
2018-07-22T03:52:16.578Z,51.60
2018-07-22T03:57:14.394Z,51.60
2018-07-22T04:02:05.293Z,51.60
2018-07-22T04:06:56.245Z,51.80
2018-07-22T04:11:47.114Z,51.80
2018-07-22T04:16:44.837Z,51.70
2018-07-22T04:21:36.502Z,51.80
2018-07-22T04:26:27.405Z,51.70
2018-07-22T04:31:19.056Z,52.10
2018-07-22T04:36:09.950Z,52.00
2018-07-22T04:41:01.588Z,52.00
2018-07-22T04:45:53.236Z,52.60
2018-07-22T04:50:44.911Z,51.90
2018-07-22T04:55:35.809Z,51.80
2018-07-22T05:00:26.712Z,51.80
2018-07-22T05:05:17.624Z,51.80
2018-07-22T05:10:09.302Z,51.70
2018-07-22T05:15:00.213Z,51.60
2018-07-22T05:19:51.098Z,51.80
2018-07-22T05:24:42.730Z,51.60
2018-07-22T05:29:34.354Z,51.70
2018-07-22T05:34:25.992Z,51.80
2018-07-22T05:39:17.618Z,51.60
2018-07-22T05:44:08.496Z,51.60
2018-07-22T05:48:59.387Z,51.90
2018-07-22T05:53:50.298Z,51.60
2018-07-22T05:58:41.261Z,51.60
2018-07-22T06:03:32.132Z,51.60
2018-07-22T06:08:23.109Z,51.50
2018-07-22T06:13:14.022Z,51.60
2018-07-22T06:18:04.911Z,51.60
2018-07-22T06:22:55.798Z,51.60
2018-07-22T06:27:47.436Z,51.90
2018-07-22T06:32:39.067Z,52.10
2018-07-22T06:37:30.683Z,52.20
2018-07-22T06:42:21.585Z,52.10
2018-07-22T06:47:12.500Z,52.20
2018-07-22T06:52:03.387Z,52.20
2018-07-22T06:56:54.288Z,52.30
2018-07-22T07:01:45.175Z,52.70
2018-07-22T07:06:36.162Z,52.90
2018-07-22T07:11:27.052Z,52.80
2018-07-22T07:16:17.945Z,52.70
2018-07-22T07:21:09.627Z,52.40
2018-07-22T07:26:00.530Z,52.40
2018-07-22T07:30:51.479Z,52.40
2018-07-22T07:35:42.366Z,52.30
2018-07-22T07:40:33.264Z,52.10
2018-07-22T07:45:24.887Z,51.90
2018-07-22T07:50:15.762Z,51.80
2018-07-22T07:55:06.647Z,51.70
2018-07-22T07:59:57.566Z,51.60
2018-07-22T08:04:48.469Z,51.40
2018-07-22T08:09:40.095Z,51.10
2018-07-22T08:14:30.971Z,51.00
2018-07-22T08:19:21.887Z,50.90
2018-07-22T08:24:12.785Z,50.60
2018-07-22T08:29:03.669Z,50.20
2018-07-22T08:33:55.315Z,49.80
2018-07-22T08:38:46.960Z,49.80
2018-07-22T08:43:37.930Z,49.70
2018-07-22T08:48:28.844Z,49.80
2018-07-22T08:53:19.771Z,49.30
2018-07-22T08:58:10.672Z,49.60
2018-07-22T09:03:01.578Z,49.30
2018-07-22T09:07:52.485Z,48.90
2018-07-22T09:12:43.446Z,49.00
2018-07-22T09:17:34.381Z,48.80
2018-07-22T09:22:25.290Z,48.90
2018-07-22T09:27:16.184Z,49.00
2018-07-22T09:32:07.120Z,48.80
2018-07-22T09:36:58.850Z,48.90
2018-07-22T09:41:49.799Z,48.90
2018-07-22T09:46:40.646Z,48.80
2018-07-22T09:51:31.533Z,48.70
2018-07-22T09:56:22.430Z,48.50
2018-07-22T10:01:14.082Z,48.50
2018-07-22T10:06:05.165Z,48.50
2018-07-22T10:10:56.124Z,48.50
2018-07-22T10:15:47.041Z,48.60
2018-07-22T10:20:37.966Z,48.60
2018-07-22T10:25:28.870Z,48.70
2018-07-22T10:30:19.759Z,48.10
2018-07-22T10:35:10.658Z,48.40
2018-07-22T10:40:02.290Z,48.10
2018-07-22T10:44:53.918Z,47.70
2018-07-22T10:49:44.918Z,47.60
2018-07-22T10:54:35.810Z,47.50
2018-07-22T10:59:26.749Z,47.30
2018-07-22T11:04:17.701Z,47.20
2018-07-22T11:09:09.352Z,47.00
2018-07-22T11:14:00.333Z,47.00
2018-07-22T11:18:51.249Z,46.90
2018-07-22T11:23:42.135Z,47.10
2018-07-22T11:28:33.161Z,47.00
2018-07-22T11:33:24.086Z,47.10
2018-07-22T11:38:14.992Z,46.90
2018-07-22T11:43:05.884Z,46.80
2018-07-22T11:47:57.585Z,46.50
2018-07-22T11:52:48.924Z,46.50
2018-07-22T11:57:40.570Z,46.50
2018-07-22T12:02:32.201Z,46.60
2018-07-22T12:07:23.090Z,46.60
2018-07-22T12:12:14.047Z,46.30
2018-07-22T12:17:11.947Z,46.20
2018-07-22T12:22:02.844Z,46.20
2018-07-22T12:26:54.474Z,46.50
2018-07-22T12:31:45.361Z,46.50
2018-07-22T12:36:36.257Z,46.60
2018-07-22T12:41:27.144Z,46.60
2018-07-22T12:46:18.071Z,46.50
2018-07-22T12:51:08.964Z,46.70
2018-07-22T12:56:00.587Z,46.80
2018-07-22T13:00:51.584Z,46.80
2018-07-22T13:05:42.485Z,46.80
2018-07-22T13:10:33.373Z,46.80
2018-07-22T13:15:24.269Z,46.50
2018-07-22T13:20:16.037Z,45.50
2018-07-22T13:25:07.054Z,45.40
2018-07-22T13:29:58.141Z,45.40
2018-07-22T13:34:49.070Z,45.30
2018-07-22T13:39:40.695Z,44.80
2018-07-22T13:44:31.706Z,45.40
2018-07-22T13:49:22.643Z,44.90
2018-07-22T13:54:13.544Z,44.80
2018-07-22T13:59:04.447Z,44.30
2018-07-22T14:03:55.335Z,44.30
2018-07-22T14:08:46.244Z,44.40
2018-07-22T14:13:37.152Z,44.00
2018-07-22T14:18:28.797Z,43.70
2018-07-22T14:23:19.677Z,43.70
2018-07-22T14:28:11.369Z,43.90
2018-07-22T14:33:02.965Z,44.10
2018-07-22T14:37:54.586Z,44.40
2018-07-22T14:42:45.476Z,44.30
2018-07-22T14:47:36.367Z,44.30
2018-07-22T14:52:27.272Z,44.50
2018-07-22T14:57:18.173Z,44.70
2018-07-22T15:02:09.798Z,44.90
2018-07-22T15:07:00.693Z,44.90
2018-07-22T15:11:51.580Z,45.00
2018-07-22T15:16:42.485Z,44.90
2018-07-22T15:21:33.389Z,44.80
2018-07-22T15:26:25.031Z,45.00
2018-07-22T15:31:15.933Z,45.00
2018-07-22T15:36:07.559Z,44.50
2018-07-22T15:40:58.452Z,44.50
2018-07-22T15:45:49.356Z,43.70
2018-07-22T15:50:40.269Z,44.30
2018-07-22T15:55:31.397Z,44.30
2018-07-22T16:00:22.106Z,44.40
2018-07-22T16:05:12.979Z,44.70
2018-07-22T16:10:04.649Z,44.80
2018-07-22T16:14:55.548Z,44.80
2018-07-22T16:19:46.488Z,45.00
2018-07-22T16:24:37.374Z,45.30
2018-07-22T16:29:29.006Z,45.40
2018-07-22T16:34:20.643Z,45.40
2018-07-22T16:39:12.418Z,45.50
2018-07-22T16:44:03.314Z,45.50
2018-07-22T16:48:54.220Z,45.70
2018-07-22T16:53:45.890Z,45.60
2018-07-22T16:58:36.787Z,45.60
2018-07-22T17:03:27.691Z,45.80
2018-07-22T17:08:19.389Z,46.20
2018-07-22T17:13:10.289Z,46.20
2018-07-22T17:18:01.208Z,46.30
2018-07-22T17:22:52.084Z,46.40
2018-07-22T17:27:43.699Z,46.60
2018-07-22T17:32:34.593Z,46.60
2018-07-22T17:37:25.501Z,47.30
2018-07-22T17:42:16.598Z,46.90
2018-07-22T17:47:07.500Z,47.10
2018-07-22T17:51:58.397Z,47.30
2018-07-22T17:56:49.295Z,47.40
2018-07-22T18:01:40.179Z,47.60
2018-07-22T18:06:31.054Z,47.60
2018-07-22T18:11:22.686Z,48.60
2018-07-22T18:16:14.306Z,48.20
2018-07-22T18:21:05.196Z,48.00
2018-07-22T18:25:56.091Z,48.10
2018-07-22T18:30:47.005Z,48.40
2018-07-22T18:35:37.902Z,48.60
2018-07-22T18:40:29.545Z,49.00
2018-07-22T18:45:20.443Z,49.00
2018-07-22T18:50:11.326Z,49.00
2018-07-22T18:55:02.284Z,49.20
2018-07-22T18:59:53.115Z,49.40
2018-07-22T19:04:44.760Z,49.50
2018-07-22T19:09:35.719Z,49.50
2018-07-22T19:14:26.607Z,49.60
2018-07-22T19:19:17.522Z,49.60
2018-07-22T19:24:08.408Z,49.80
2018-07-22T19:28:59.290Z,50.00
2018-07-22T19:33:50.175Z,50.50
2018-07-22T19:38:41.058Z,50.40
2018-07-22T19:43:31.941Z,50.50
2018-07-22T19:48:22.845Z,50.60
2018-07-22T19:53:13.753Z,50.60
2018-07-22T19:58:04.647Z,50.70
2018-07-22T20:02:56.313Z,51.10
2018-07-22T20:07:47.919Z,51.10
2018-07-22T20:12:39.569Z,51.30
2018-07-22T20:17:30.476Z,51.10
2018-07-22T20:22:21.373Z,51.30
2018-07-22T20:27:12.271Z,51.50
2018-07-22T20:32:03.162Z,51.50
2018-07-22T20:36:54.047Z,51.60
2018-07-22T20:41:45.682Z,51.80
2018-07-22T20:46:37.320Z,51.70
2018-07-22T20:51:28.262Z,51.70
2018-07-22T20:56:19.893Z,51.80
2018-07-22T21:01:10.853Z,51.80
2018-07-22T21:06:01.746Z,51.90
2018-07-22T21:10:52.716Z,51.90
2018-07-22T21:15:43.917Z,52.00
2018-07-22T21:20:34.840Z,52.10
2018-07-22T21:25:25.795Z,52.10
2018-07-22T21:30:16.698Z,52.20
2018-07-22T21:35:07.605Z,51.80
2018-07-22T21:39:58.514Z,52.40
2018-07-22T21:44:49.406Z,52.60
2018-07-22T21:49:40.311Z,52.60
2018-07-22T21:54:31.209Z,52.80
2018-07-22T21:59:22.852Z,53.00
2018-07-22T22:04:14.572Z,53.00
2018-07-22T22:09:05.472Z,53.00
2018-07-22T22:13:56.377Z,53.10
2018-07-22T22:18:47.278Z,53.30
2018-07-22T22:23:38.240Z,53.30
2018-07-22T22:28:29.246Z,53.40
2018-07-22T22:33:20.160Z,53.40
2018-07-22T22:38:11.059Z,53.40
2018-07-22T22:43:01.942Z,53.50
2018-07-22T22:47:53.598Z,53.70
2018-07-22T22:52:44.482Z,53.50
2018-07-22T22:57:36.117Z,54.40
2018-07-22T23:02:27.756Z,53.90
2018-07-22T23:07:19.419Z,53.80
2018-07-22T23:12:10.340Z,53.80
2018-07-22T23:17:01.218Z,53.80
2018-07-22T23:21:52.125Z,54.00
2018-07-22T23:26:43.027Z,53.90
2018-07-22T23:31:33.935Z,53.90
2018-07-22T23:36:24.825Z,54.00
2018-07-22T23:41:15.775Z,54.10
2018-07-22T23:46:06.693Z,54.00
2018-07-22T23:50:57.610Z,53.90
2018-07-22T23:55:48.508Z,54.50
